sensor_id;sensor_type;location;lat;lon;timestamp;temperature;humidity
23991;DHT22;12205;50.600;4.608;2022-07-18T00:01:50;18.50;99.90
23991;DHT22;12205;50.600;4.608;2022-07-18T00:04:17;18.40;99.90
23991;DHT22;12205;50.600;4.608;2022-07-18T00:06:44;18.40;99.90
23991;DHT22;12205;50.600;4.608;2022-07-18T00:09:13;18.30;99.90
23991;DHT22;12205;50.600;4.608;2022-07-18T00:11:40;18.30;99.90
23991;DHT22;12205;50.600;4.608;2022-07-18T00:14:07;18.30;99.90
23991;DHT22;12205;50.600;4.608;2022-07-18T00:16:34;18.20;99.90
23991;DHT22;12205;50.600;4.608;2022-07-18T00:19:02;18.20;99.90
23991;DHT22;12205;50.600;4.608;2022-07-18T00:21:31;18.10;99.90
23991;DHT22;12205;50.600;4.608;2022-07-18T00:23:58;18.10;99.90
23991;DHT22;12205;50.600;4.608;2022-07-18T00:26:27;18.00;99.90
23991;DHT22;12205;50.600;4.608;2022-07-18T00:28:54;18.00;99.90
23991;DHT22;12205;50.600;4.608;2022-07-18T00:31:21;17.90;99.90
23991;DHT22;12205;50.600;4.608;2022-07-18T00:33:48;17.90;99.90
23991;DHT22;12205;50.600;4.608;2022-07-18T00:36:15;17.90;99.90
23991;DHT22;12205;50.600;4.608;2022-07-18T00:38:42;17.90;99.90
23991;DHT22;12205;50.600;4.608;2022-07-18T00:41:13;17.90;99.90
23991;DHT22;12205;50.600;4.608;2022-07-18T00:43:42;17.80;99.90
23991;DHT22;12205;50.600;4.608;2022-07-18T00:46:10;17.70;99.90
23991;DHT22;12205;50.600;4.608;2022-07-18T00:48:37;17.70;99.90
23991;DHT22;12205;50.600;4.608;2022-07-18T00:51:05;17.60;99.90
23991;DHT22;12205;50.600;4.608;2022-07-18T00:53:32;17.60;99.90
23991;DHT22;12205;50.600;4.608;2022-07-18T00:56:00;17.60;99.90
23991;DHT22;12205;50.600;4.608;2022-07-18T00:58:29;17.50;99.90
23991;DHT22;12205;50.600;4.608;2022-07-18T01:00:58;17.50;99.90
23991;DHT22;12205;50.600;4.608;2022-07-18T01:03:43;17.40;99.90
23991;DHT22;12205;50.600;4.608;2022-07-18T01:06:10;17.40;99.90
23991;DHT22;12205;50.600;4.608;2022-07-18T01:08:38;17.40;99.90
23991;DHT22;12205;50.600;4.608;2022-07-18T01:11:08;17.30;99.90
23991;DHT22;12205;50.600;4.608;2022-07-18T01:13:37;17.30;99.90
23991;DHT22;12205;50.600;4.608;2022-07-18T01:16:06;17.30;99.90
23991;DHT22;12205;50.600;4.608;2022-07-18T01:18:34;17.20;99.90
23991;DHT22;12205;50.600;4.608;2022-07-18T01:21:02;17.20;99.90
23991;DHT22;12205;50.600;4.608;2022-07-18T01:23:30;17.20;99.90
23991;DHT22;12205;50.600;4.608;2022-07-18T01:25:57;17.20;99.90
23991;DHT22;12205;50.600;4.608;2022-07-18T01:28:24;17.20;99.90
23991;DHT22;12205;50.600;4.608;2022-07-18T01:30:52;17.10;99.90
23991;DHT22;12205;50.600;4.608;2022-07-18T01:33:19;17.10;99.90
23991;DHT22;12205;50.600;4.608;2022-07-18T01:35:46;17.00;99.90
23991;DHT22;12205;50.600;4.608;2022-07-18T01:38:14;17.00;99.90
23991;DHT22;12205;50.600;4.608;2022-07-18T01:40:43;17.00;99.90
23991;DHT22;12205;50.600;4.608;2022-07-18T01:43:11;17.00;99.90
23991;DHT22;12205;50.600;4.608;2022-07-18T01:45:38;17.00;99.90
23991;DHT22;12205;50.600;4.608;2022-07-18T01:48:05;16.90;99.90
23991;DHT22;12205;50.600;4.608;2022-07-18T01:50:33;16.90;99.90
23991;DHT22;12205;50.600;4.608;2022-07-18T01:53:00;16.80;99.90
23991;DHT22;12205;50.600;4.608;2022-07-18T01:55:28;16.80;99.90
23991;DHT22;12205;50.600;4.608;2022-07-18T01:57:55;16.80;99.90
23991;DHT22;12205;50.600;4.608;2022-07-18T02:00:22;16.80;99.90
23991;DHT22;12205;50.600;4.608;2022-07-18T02:02:49;16.70;99.90
23991;DHT22;12205;50.600;4.608;2022-07-18T02:05:18;16.70;99.90
23991;DHT22;12205;50.600;4.608;2022-07-18T02:07:45;16.70;99.90
23991;DHT22;12205;50.600;4.608;2022-07-18T02:10:15;16.70;99.90
23991;DHT22;12205;50.600;4.608;2022-07-18T02:12:45;16.70;99.90
23991;DHT22;12205;50.600;4.608;2022-07-18T02:15:14;16.70;99.90
23991;DHT22;12205;50.600;4.608;2022-07-18T02:17:42;16.70;99.90
23991;DHT22;12205;50.600;4.608;2022-07-18T02:20:12;16.70;99.90
23991;DHT22;12205;50.600;4.608;2022-07-18T02:22:41;16.60;99.90
23991;DHT22;12205;50.600;4.608;2022-07-18T02:25:09;16.60;99.90
23991;DHT22;12205;50.600;4.608;2022-07-18T02:27:37;16.60;99.90
23991;DHT22;12205;50.600;4.608;2022-07-18T02:30:07;16.50;99.90
23991;DHT22;12205;50.600;4.608;2022-07-18T02:32:36;16.50;99.90
23991;DHT22;12205;50.600;4.608;2022-07-18T02:35:04;16.50;99.90
23991;DHT22;12205;50.600;4.608;2022-07-18T02:37:32;16.50;99.90
23991;DHT22;12205;50.600;4.608;2022-07-18T02:39:59;16.40;99.90
23991;DHT22;12205;50.600;4.608;2022-07-18T02:42:27;16.40;99.90
23991;DHT22;12205;50.600;4.608;2022-07-18T02:44:54;16.40;99.90
23991;DHT22;12205;50.600;4.608;2022-07-18T02:47:22;16.40;99.90
23991;DHT22;12205;50.600;4.608;2022-07-18T02:49:49;16.40;99.90
23991;DHT22;12205;50.600;4.608;2022-07-18T02:52:16;16.40;99.90
23991;DHT22;12205;50.600;4.608;2022-07-18T02:54:43;16.40;99.90
23991;DHT22;12205;50.600;4.608;2022-07-18T02:57:10;16.40;99.90
23991;DHT22;12205;50.600;4.608;2022-07-18T02:59:38;16.30;99.90
23991;DHT22;12205;50.600;4.608;2022-07-18T03:02:05;16.30;99.90
23991;DHT22;12205;50.600;4.608;2022-07-18T03:04:34;16.20;99.90
23991;DHT22;12205;50.600;4.608;2022-07-18T03:07:01;16.20;99.90
23991;DHT22;12205;50.600;4.608;2022-07-18T03:09:28;16.10;99.90
23991;DHT22;12205;50.600;4.608;2022-07-18T03:11:56;16.10;99.90
23991;DHT22;12205;50.600;4.608;2022-07-18T03:14:23;16.10;99.90
23991;DHT22;12205;50.600;4.608;2022-07-18T03:16:50;16.00;99.90
23991;DHT22;12205;50.600;4.608;2022-07-18T03:19:17;16.00;99.90
23991;DHT22;12205;50.600;4.608;2022-07-18T03:21:46;15.90;99.90
23991;DHT22;12205;50.600;4.608;2022-07-18T03:24:13;15.90;99.90
23991;DHT22;12205;50.600;4.608;2022-07-18T03:26:41;15.90;99.90
23991;DHT22;12205;50.600;4.608;2022-07-18T03:29:08;15.90;99.90
23991;DHT22;12205;50.600;4.608;2022-07-18T03:31:36;15.90;99.90
23991;DHT22;12205;50.600;4.608;2022-07-18T03:34:03;15.90;99.90
23991;DHT22;12205;50.600;4.608;2022-07-18T03:36:30;15.90;99.90
23991;DHT22;12205;50.600;4.608;2022-07-18T03:38:58;15.90;99.90
23991;DHT22;12205;50.600;4.608;2022-07-18T03:41:25;15.80;99.90
23991;DHT22;12205;50.600;4.608;2022-07-18T03:43:52;15.80;99.90
23991;DHT22;12205;50.600;4.608;2022-07-18T03:46:20;15.70;99.90
23991;DHT22;12205;50.600;4.608;2022-07-18T03:48:47;15.70;99.90
23991;DHT22;12205;50.600;4.608;2022-07-18T03:51:14;15.70;99.90
23991;DHT22;12205;50.600;4.608;2022-07-18T03:53:41;15.70;99.90
23991;DHT22;12205;50.600;4.608;2022-07-18T03:56:09;15.70;99.90
23991;DHT22;12205;50.600;4.608;2022-07-18T03:58:36;15.60;99.90
23991;DHT22;12205;50.600;4.608;2022-07-18T04:01:04;15.60;99.90
23991;DHT22;12205;50.600;4.608;2022-07-18T04:03:31;15.60;99.90
23991;DHT22;12205;50.600;4.608;2022-07-18T04:05:58;15.60;99.90
23991;DHT22;12205;50.600;4.608;2022-07-18T04:08:25;15.60;99.90
23991;DHT22;12205;50.600;4.608;2022-07-18T04:10:52;15.60;99.90
23991;DHT22;12205;50.600;4.608;2022-07-18T04:13:21;15.60;99.90
23991;DHT22;12205;50.600;4.608;2022-07-18T04:15:48;15.60;99.90
23991;DHT22;12205;50.600;4.608;2022-07-18T04:18:15;15.60;99.90
23991;DHT22;12205;50.600;4.608;2022-07-18T04:20:42;15.70;99.90
23991;DHT22;12205;50.600;4.608;2022-07-18T04:23:10;15.70;99.90
23991;DHT22;12205;50.600;4.608;2022-07-18T04:25:39;15.70;99.90
23991;DHT22;12205;50.600;4.608;2022-07-18T04:28:08;15.70;99.90
23991;DHT22;12205;50.600;4.608;2022-07-18T04:30:39;15.70;99.90
23991;DHT22;12205;50.600;4.608;2022-07-18T04:33:08;15.70;99.90
23991;DHT22;12205;50.600;4.608;2022-07-18T04:35:36;15.70;99.90
23991;DHT22;12205;50.600;4.608;2022-07-18T04:38:06;15.70;99.90
23991;DHT22;12205;50.600;4.608;2022-07-18T04:40:34;15.80;99.90
23991;DHT22;12205;50.600;4.608;2022-07-18T04:43:02;15.80;99.90
23991;DHT22;12205;50.600;4.608;2022-07-18T04:45:30;15.80;99.90
23991;DHT22;12205;50.600;4.608;2022-07-18T04:47:59;15.90;99.90
23991;DHT22;12205;50.600;4.608;2022-07-18T04:50:26;15.90;99.90
23991;DHT22;12205;50.600;4.608;2022-07-18T04:52:56;15.90;99.90
23991;DHT22;12205;50.600;4.608;2022-07-18T04:55:24;16.00;99.90
23991;DHT22;12205;50.600;4.608;2022-07-18T04:57:53;16.10;99.90
23991;DHT22;12205;50.600;4.608;2022-07-18T05:00:22;16.10;99.90
23991;DHT22;12205;50.600;4.608;2022-07-18T05:02:52;16.20;99.90
23991;DHT22;12205;50.600;4.608;2022-07-18T05:05:24;16.20;99.90
23991;DHT22;12205;50.600;4.608;2022-07-18T05:07:52;16.20;99.90
23991;DHT22;12205;50.600;4.608;2022-07-18T05:10:21;16.30;99.90
23991;DHT22;12205;50.600;4.608;2022-07-18T05:12:51;16.40;99.90
23991;DHT22;12205;50.600;4.608;2022-07-18T05:15:21;16.40;99.90
23991;DHT22;12205;50.600;4.608;2022-07-18T05:17:50;16.50;99.90
23991;DHT22;12205;50.600;4.608;2022-07-18T05:20:23;16.60;99.90
23991;DHT22;12205;50.600;4.608;2022-07-18T05:22:51;16.70;99.90
23991;DHT22;12205;50.600;4.608;2022-07-18T05:25:20;16.70;99.90
23991;DHT22;12205;50.600;4.608;2022-07-18T05:27:49;16.80;99.90
23991;DHT22;12205;50.600;4.608;2022-07-18T05:30:16;16.90;99.90
23991;DHT22;12205;50.600;4.608;2022-07-18T05:32:45;17.00;99.90
23991;DHT22;12205;50.600;4.608;2022-07-18T05:35:13;17.10;99.90
23991;DHT22;12205;50.600;4.608;2022-07-18T05:37:42;17.20;99.90
23991;DHT22;12205;50.600;4.608;2022-07-18T05:40:12;17.30;99.90
23991;DHT22;12205;50.600;4.608;2022-07-18T05:42:42;17.40;99.90
23991;DHT22;12205;50.600;4.608;2022-07-18T05:45:10;17.60;99.90
23991;DHT22;12205;50.600;4.608;2022-07-18T05:47:38;17.70;99.90
23991;DHT22;12205;50.600;4.608;2022-07-18T05:50:06;17.80;99.90
23991;DHT22;12205;50.600;4.608;2022-07-18T05:52:35;18.00;99.90
23991;DHT22;12205;50.600;4.608;2022-07-18T05:55:05;18.10;99.90
23991;DHT22;12205;50.600;4.608;2022-07-18T05:57:33;18.30;99.90
23991;DHT22;12205;50.600;4.608;2022-07-18T06:00:01;18.40;99.90
23991;DHT22;12205;50.600;4.608;2022-07-18T06:02:34;18.50;99.90
23991;DHT22;12205;50.600;4.608;2022-07-18T06:05:02;18.70;99.90
23991;DHT22;12205;50.600;4.608;2022-07-18T06:07:30;18.80;99.90
23991;DHT22;12205;50.600;4.608;2022-07-18T06:09:57;19.00;99.90
23991;DHT22;12205;50.600;4.608;2022-07-18T06:12:29;19.10;99.90
23991;DHT22;12205;50.600;4.608;2022-07-18T06:14:57;19.20;99.90
23991;DHT22;12205;50.600;4.608;2022-07-18T06:17:25;19.40;99.90
23991;DHT22;12205;50.600;4.608;2022-07-18T06:19:53;19.60;99.90
23991;DHT22;12205;50.600;4.608;2022-07-18T06:22:21;19.70;99.90
23991;DHT22;12205;50.600;4.608;2022-07-18T06:24:48;19.90;99.90
23991;DHT22;12205;50.600;4.608;2022-07-18T06:27:16;20.00;99.90
23991;DHT22;12205;50.600;4.608;2022-07-18T06:29:44;20.20;99.90
23991;DHT22;12205;50.600;4.608;2022-07-18T06:32:11;20.30;99.90
23991;DHT22;12205;50.600;4.608;2022-07-18T06:34:38;20.50;99.90
23991;DHT22;12205;50.600;4.608;2022-07-18T06:37:05;20.60;99.90
23991;DHT22;12205;50.600;4.608;2022-07-18T06:39:32;20.70;99.90
23991;DHT22;12205;50.600;4.608;2022-07-18T06:41:59;20.80;99.90
23991;DHT22;12205;50.600;4.608;2022-07-18T06:44:26;20.90;99.90
23991;DHT22;12205;50.600;4.608;2022-07-18T06:46:55;21.00;99.90
23991;DHT22;12205;50.600;4.608;2022-07-18T06:49:23;21.20;99.90
23991;DHT22;12205;50.600;4.608;2022-07-18T06:51:51;21.30;99.90
23991;DHT22;12205;50.600;4.608;2022-07-18T06:54:18;21.40;99.90
23991;DHT22;12205;50.600;4.608;2022-07-18T06:56:45;21.40;99.90
23991;DHT22;12205;50.600;4.608;2022-07-18T06:59:12;21.60;99.90
23991;DHT22;12205;50.600;4.608;2022-07-18T07:01:40;21.70;99.90
23991;DHT22;12205;50.600;4.608;2022-07-18T07:04:08;21.80;99.90
23991;DHT22;12205;50.600;4.608;2022-07-18T07:06:35;21.90;99.90
23991;DHT22;12205;50.600;4.608;2022-07-18T07:09:04;22.10;99.90
23991;DHT22;12205;50.600;4.608;2022-07-18T07:11:32;22.20;99.90
23991;DHT22;12205;50.600;4.608;2022-07-18T07:13:59;22.30;99.90
23991;DHT22;12205;50.600;4.608;2022-07-18T07:16:26;22.40;99.90
23991;DHT22;12205;50.600;4.608;2022-07-18T07:18:54;22.50;99.90
23991;DHT22;12205;50.600;4.608;2022-07-18T07:21:22;22.60;99.90
23991;DHT22;12205;50.600;4.608;2022-07-18T07:23:49;22.80;99.90
23991;DHT22;12205;50.600;4.608;2022-07-18T07:26:17;22.80;99.90
23991;DHT22;12205;50.600;4.608;2022-07-18T07:28:44;23.00;99.90
23991;DHT22;12205;50.600;4.608;2022-07-18T07:31:12;23.10;99.90
23991;DHT22;12205;50.600;4.608;2022-07-18T07:33:39;23.30;99.90
23991;DHT22;12205;50.600;4.608;2022-07-18T07:36:06;23.40;99.90
23991;DHT22;12205;50.600;4.608;2022-07-18T07:38:35;23.50;99.90
23991;DHT22;12205;50.600;4.608;2022-07-18T07:41:03;23.60;99.90
23991;DHT22;12205;50.600;4.608;2022-07-18T07:43:30;23.70;99.90
23991;DHT22;12205;50.600;4.608;2022-07-18T07:45:57;23.90;99.90
23991;DHT22;12205;50.600;4.608;2022-07-18T07:48:24;24.00;99.90
23991;DHT22;12205;50.600;4.608;2022-07-18T07:50:51;24.00;99.90
23991;DHT22;12205;50.600;4.608;2022-07-18T07:53:18;24.20;99.90
23991;DHT22;12205;50.600;4.608;2022-07-18T07:55:47;24.30;99.90
23991;DHT22;12205;50.600;4.608;2022-07-18T07:58:14;24.40;99.90
23991;DHT22;12205;50.600;4.608;2022-07-18T08:00:41;24.50;99.90
23991;DHT22;12205;50.600;4.608;2022-07-18T08:03:08;24.60;99.90
23991;DHT22;12205;50.600;4.608;2022-07-18T08:05:37;24.80;99.90
23991;DHT22;12205;50.600;4.608;2022-07-18T08:08:06;24.80;99.90
23991;DHT22;12205;50.600;4.608;2022-07-18T08:10:33;25.00;99.90
23991;DHT22;12205;50.600;4.608;2022-07-18T08:13:02;25.10;99.90
23991;DHT22;12205;50.600;4.608;2022-07-18T08:15:29;25.20;99.90
23991;DHT22;12205;50.600;4.608;2022-07-18T08:17:57;25.30;99.90
23991;DHT22;12205;50.600;4.608;2022-07-18T08:20:24;25.50;99.90
23991;DHT22;12205;50.600;4.608;2022-07-18T08:22:53;25.50;99.90
23991;DHT22;12205;50.600;4.608;2022-07-18T08:25:21;25.70;99.90
23991;DHT22;12205;50.600;4.608;2022-07-18T08:27:49;25.70;99.90
23991;DHT22;12205;50.600;4.608;2022-07-18T08:30:19;25.80;99.80
23991;DHT22;12205;50.600;4.608;2022-07-18T08:32:47;25.80;99.60
23991;DHT22;12205;50.600;4.608;2022-07-18T08:35:14;26.00;99.50
23991;DHT22;12205;50.600;4.608;2022-07-18T08:37:41;26.10;98.30
23991;DHT22;12205;50.600;4.608;2022-07-18T08:40:09;26.20;97.90
23991;DHT22;12205;50.600;4.608;2022-07-18T08:42:37;26.40;97.60
23991;DHT22;12205;50.600;4.608;2022-07-18T08:45:05;26.50;97.70
23991;DHT22;12205;50.600;4.608;2022-07-18T08:47:35;26.60;95.90
23991;DHT22;12205;50.600;4.608;2022-07-18T08:50:03;26.70;95.80
23991;DHT22;12205;50.600;4.608;2022-07-18T08:52:32;26.80;95.40
23991;DHT22;12205;50.600;4.608;2022-07-18T08:55:01;26.90;94.90
23991;DHT22;12205;50.600;4.608;2022-07-18T08:57:29;27.00;95.10
23991;DHT22;12205;50.600;4.608;2022-07-18T08:59:56;27.10;93.90
23991;DHT22;12205;50.600;4.608;2022-07-18T09:02:25;27.20;93.90
23991;DHT22;12205;50.600;4.608;2022-07-18T09:04:54;27.30;94.80
23991;DHT22;12205;50.600;4.608;2022-07-18T09:07:26;27.40;92.70
23991;DHT22;12205;50.600;4.608;2022-07-18T09:09:56;27.50;93.30
23991;DHT22;12205;50.600;4.608;2022-07-18T09:12:25;27.60;92.40
23991;DHT22;12205;50.600;4.608;2022-07-18T09:14:56;27.70;91.40
23991;DHT22;12205;50.600;4.608;2022-07-18T09:17:25;27.80;90.20
23991;DHT22;12205;50.600;4.608;2022-07-18T09:20:00;27.90;88.20
23991;DHT22;12205;50.600;4.608;2022-07-18T09:22:32;28.00;86.90
23991;DHT22;12205;50.600;4.608;2022-07-18T09:25:04;28.00;86.40
23991;DHT22;12205;50.600;4.608;2022-07-18T09:27:37;28.10;85.70
23991;DHT22;12205;50.600;4.608;2022-07-18T09:30:23;28.20;88.00
23991;DHT22;12205;50.600;4.608;2022-07-18T09:32:54;28.40;86.40
23991;DHT22;12205;50.600;4.608;2022-07-18T09:35:33;28.40;83.60
23991;DHT22;12205;50.600;4.608;2022-07-18T09:38:04;28.50;80.50
23991;DHT22;12205;50.600;4.608;2022-07-18T09:40:37;28.60;83.50
23991;DHT22;12205;50.600;4.608;2022-07-18T09:43:08;28.70;82.50
23991;DHT22;12205;50.600;4.608;2022-07-18T09:45:38;28.70;80.30
23991;DHT22;12205;50.600;4.608;2022-07-18T09:48:08;28.70;81.50
23991;DHT22;12205;50.600;4.608;2022-07-18T09:50:39;28.70;80.60
23991;DHT22;12205;50.600;4.608;2022-07-18T09:53:11;28.80;79.60
23991;DHT22;12205;50.600;4.608;2022-07-18T09:55:46;28.90;78.90
23991;DHT22;12205;50.600;4.608;2022-07-18T09:58:17;28.90;77.20
23991;DHT22;12205;50.600;4.608;2022-07-18T10:00:45;29.10;71.30
23991;DHT22;12205;50.600;4.608;2022-07-18T10:03:13;29.20;77.20
23991;DHT22;12205;50.600;4.608;2022-07-18T10:05:44;29.20;72.30
23991;DHT22;12205;50.600;4.608;2022-07-18T10:08:14;29.30;72.40
23991;DHT22;12205;50.600;4.608;2022-07-18T10:10:43;29.30;72.80
23991;DHT22;12205;50.600;4.608;2022-07-18T10:13:12;29.40;70.30
23991;DHT22;12205;50.600;4.608;2022-07-18T10:15:41;29.50;72.00
23991;DHT22;12205;50.600;4.608;2022-07-18T10:18:12;29.60;69.40
23991;DHT22;12205;50.600;4.608;2022-07-18T10:20:47;29.60;67.80
23991;DHT22;12205;50.600;4.608;2022-07-18T10:23:20;29.70;68.60
23991;DHT22;12205;50.600;4.608;2022-07-18T10:26:06;29.80;66.90
23991;DHT22;12205;50.600;4.608;2022-07-18T10:29:09;29.90;66.70
23991;DHT22;12205;50.600;4.608;2022-07-18T10:31:58;30.00;65.40
23991;DHT22;12205;50.600;4.608;2022-07-18T10:34:31;30.00;64.40
23991;DHT22;12205;50.600;4.608;2022-07-18T10:37:11;30.10;66.30
23991;DHT22;12205;50.600;4.608;2022-07-18T10:39:39;30.10;62.70
23991;DHT22;12205;50.600;4.608;2022-07-18T10:42:18;30.20;62.20
23991;DHT22;12205;50.600;4.608;2022-07-18T10:44:46;30.30;62.20
23991;DHT22;12205;50.600;4.608;2022-07-18T10:47:16;30.40;64.00
23991;DHT22;12205;50.600;4.608;2022-07-18T10:50:08;30.40;64.20
23991;DHT22;12205;50.600;4.608;2022-07-18T10:53:00;30.50;64.20
23991;DHT22;12205;50.600;4.608;2022-07-18T10:55:31;30.60;59.20
23991;DHT22;12205;50.600;4.608;2022-07-18T10:58:17;30.60;59.40
23991;DHT22;12205;50.600;4.608;2022-07-18T11:00:49;30.70;58.30
23991;DHT22;12205;50.600;4.608;2022-07-18T11:03:26;30.80;59.30
23991;DHT22;12205;50.600;4.608;2022-07-18T11:05:56;31.00;59.00
23991;DHT22;12205;50.600;4.608;2022-07-18T11:08:25;31.10;60.00
23991;DHT22;12205;50.600;4.608;2022-07-18T11:11:10;31.30;58.60
23991;DHT22;12205;50.600;4.608;2022-07-18T11:13:43;31.40;58.30
23991;DHT22;12205;50.600;4.608;2022-07-18T11:16:17;31.40;58.10
23991;DHT22;12205;50.600;4.608;2022-07-18T11:19:15;31.50;58.60
23991;DHT22;12205;50.600;4.608;2022-07-18T11:21:48;31.50;57.00
23991;DHT22;12205;50.600;4.608;2022-07-18T11:24:24;31.60;56.80
23991;DHT22;12205;50.600;4.608;2022-07-18T11:26:53;31.80;56.30
23991;DHT22;12205;50.600;4.608;2022-07-18T11:29:20;31.90;56.30
23991;DHT22;12205;50.600;4.608;2022-07-18T11:31:48;32.00;55.80
23991;DHT22;12205;50.600;4.608;2022-07-18T11:34:17;32.30;55.00
23991;DHT22;12205;50.600;4.608;2022-07-18T11:36:46;32.50;55.10
23991;DHT22;12205;50.600;4.608;2022-07-18T11:39:14;32.70;56.60
23991;DHT22;12205;50.600;4.608;2022-07-18T11:41:55;33.00;56.10
23991;DHT22;12205;50.600;4.608;2022-07-18T11:44:22;33.30;55.60
23991;DHT22;12205;50.600;4.608;2022-07-18T11:47:04;33.30;55.40
23991;DHT22;12205;50.600;4.608;2022-07-18T11:49:33;33.50;54.80
23991;DHT22;12205;50.600;4.608;2022-07-18T11:52:01;33.80;54.70
23991;DHT22;12205;50.600;4.608;2022-07-18T11:54:29;34.00;55.00
23991;DHT22;12205;50.600;4.608;2022-07-18T11:56:59;34.40;54.70
23991;DHT22;12205;50.600;4.608;2022-07-18T11:59:35;34.60;53.40
23991;DHT22;12205;50.600;4.608;2022-07-18T12:02:03;34.70;52.70
23991;DHT22;12205;50.600;4.608;2022-07-18T12:04:31;35.00;53.60
23991;DHT22;12205;50.600;4.608;2022-07-18T12:07:16;35.30;52.00
23991;DHT22;12205;50.600;4.608;2022-07-18T12:09:47;35.50;51.70
23991;DHT22;12205;50.600;4.608;2022-07-18T12:12:18;35.80;50.40
23991;DHT22;12205;50.600;4.608;2022-07-18T12:14:53;36.30;50.80
23991;DHT22;12205;50.600;4.608;2022-07-18T12:17:24;36.70;49.00
23991;DHT22;12205;50.600;4.608;2022-07-18T12:19:52;36.80;47.40
23991;DHT22;12205;50.600;4.608;2022-07-18T12:22:19;37.10;47.20
23991;DHT22;12205;50.600;4.608;2022-07-18T12:24:51;37.60;45.70
23991;DHT22;12205;50.600;4.608;2022-07-18T12:27:24;37.80;46.10
23991;DHT22;12205;50.600;4.608;2022-07-18T12:29:55;38.40;46.10
23991;DHT22;12205;50.600;4.608;2022-07-18T12:32:25;39.00;44.30
23991;DHT22;12205;50.600;4.608;2022-07-18T12:34:57;39.60;43.80
23991;DHT22;12205;50.600;4.608;2022-07-18T12:37:28;40.30;43.70
23991;DHT22;12205;50.600;4.608;2022-07-18T12:39:57;41.00;42.00
23991;DHT22;12205;50.600;4.608;2022-07-18T12:42:32;41.00;39.70
23991;DHT22;12205;50.600;4.608;2022-07-18T12:45:02;40.40;38.30
23991;DHT22;12205;50.600;4.608;2022-07-18T12:47:30;40.50;38.90
23991;DHT22;12205;50.600;4.608;2022-07-18T12:49:58;40.90;38.10
23991;DHT22;12205;50.600;4.608;2022-07-18T12:52:25;41.70;39.10
23991;DHT22;12205;50.600;4.608;2022-07-18T12:54:53;42.10;36.60
23991;DHT22;12205;50.600;4.608;2022-07-18T12:57:20;41.50;37.60
23991;DHT22;12205;50.600;4.608;2022-07-18T12:59:49;41.50;36.90
23991;DHT22;12205;50.600;4.608;2022-07-18T13:02:17;42.00;37.70
23991;DHT22;12205;50.600;4.608;2022-07-18T13:04:45;42.70;37.80
23991;DHT22;12205;50.600;4.608;2022-07-18T13:07:12;42.20;36.30
23991;DHT22;12205;50.600;4.608;2022-07-18T13:09:39;41.80;35.60
23991;DHT22;12205;50.600;4.608;2022-07-18T13:12:06;41.80;36.00
23991;DHT22;12205;50.600;4.608;2022-07-18T13:14:33;42.50;36.30
23991;DHT22;12205;50.600;4.608;2022-07-18T13:17:02;43.50;36.10
23991;DHT22;12205;50.600;4.608;2022-07-18T13:19:29;43.60;35.30
23991;DHT22;12205;50.600;4.608;2022-07-18T13:21:58;43.90;34.70
23991;DHT22;12205;50.600;4.608;2022-07-18T13:24:26;44.10;33.40
23991;DHT22;12205;50.600;4.608;2022-07-18T13:26:54;43.70;33.60
23991;DHT22;12205;50.600;4.608;2022-07-18T13:29:21;43.80;34.00
23991;DHT22;12205;50.600;4.608;2022-07-18T13:31:49;44.10;34.10
23991;DHT22;12205;50.600;4.608;2022-07-18T13:34:19;44.00;33.10
23991;DHT22;12205;50.600;4.608;2022-07-18T13:36:51;44.50;33.50
23991;DHT22;12205;50.600;4.608;2022-07-18T13:39:19;45.40;33.70
23991;DHT22;12205;50.600;4.608;2022-07-18T13:41:47;45.30;31.10
23991;DHT22;12205;50.600;4.608;2022-07-18T13:44:16;44.80;32.10
23991;DHT22;12205;50.600;4.608;2022-07-18T13:46:43;45.20;32.20
23991;DHT22;12205;50.600;4.608;2022-07-18T13:49:11;45.70;32.00
23991;DHT22;12205;50.600;4.608;2022-07-18T13:51:39;46.30;31.40
23991;DHT22;12205;50.600;4.608;2022-07-18T13:54:06;46.80;30.90
23991;DHT22;12205;50.600;4.608;2022-07-18T13:56:34;46.60;30.20
23991;DHT22;12205;50.600;4.608;2022-07-18T13:59:01;46.00;30.60
23991;DHT22;12205;50.600;4.608;2022-07-18T14:01:28;46.20;29.80
23991;DHT22;12205;50.600;4.608;2022-07-18T14:03:55;46.10;30.30
23991;DHT22;12205;50.600;4.608;2022-07-18T14:06:22;46.50;30.00
23991;DHT22;12205;50.600;4.608;2022-07-18T14:08:51;46.70;29.40
23991;DHT22;12205;50.600;4.608;2022-07-18T14:11:18;46.60;30.00
23991;DHT22;12205;50.600;4.608;2022-07-18T14:13:45;46.80;29.40
23991;DHT22;12205;50.600;4.608;2022-07-18T14:16:13;46.70;29.20
23991;DHT22;12205;50.600;4.608;2022-07-18T14:18:41;46.70;29.50
23991;DHT22;12205;50.600;4.608;2022-07-18T14:21:08;47.30;29.70
23991;DHT22;12205;50.600;4.608;2022-07-18T14:23:35;47.70;29.30
23991;DHT22;12205;50.600;4.608;2022-07-18T14:26:04;48.00;29.40
23991;DHT22;12205;50.600;4.608;2022-07-18T14:28:31;47.70;29.50
23991;DHT22;12205;50.600;4.608;2022-07-18T14:30:58;47.80;29.00
23991;DHT22;12205;50.600;4.608;2022-07-18T14:33:25;47.60;28.90
23991;DHT22;12205;50.600;4.608;2022-07-18T14:35:52;47.80;29.40
23991;DHT22;12205;50.600;4.608;2022-07-18T14:38:19;48.00;29.00
23991;DHT22;12205;50.600;4.608;2022-07-18T14:40:46;46.90;28.70
23991;DHT22;12205;50.600;4.608;2022-07-18T14:43:15;46.50;28.70
23991;DHT22;12205;50.600;4.608;2022-07-18T14:45:42;46.50;29.30
23991;DHT22;12205;50.600;4.608;2022-07-18T14:48:09;46.80;28.90
23991;DHT22;12205;50.600;4.608;2022-07-18T14:50:36;46.70;28.50
23991;DHT22;12205;50.600;4.608;2022-07-18T14:53:03;47.00;28.40
23991;DHT22;12205;50.600;4.608;2022-07-18T14:55:31;47.20;28.20
23991;DHT22;12205;50.600;4.608;2022-07-18T14:57:58;47.00;28.20
23991;DHT22;12205;50.600;4.608;2022-07-18T15:00:26;47.20;28.70
23991;DHT22;12205;50.600;4.608;2022-07-18T15:02:54;46.80;28.00
23991;DHT22;12205;50.600;4.608;2022-07-18T15:05:21;47.10;27.80
23991;DHT22;12205;50.600;4.608;2022-07-18T15:07:48;47.10;27.80
23991;DHT22;12205;50.600;4.608;2022-07-18T15:10:15;47.30;27.60
23991;DHT22;12205;50.600;4.608;2022-07-18T15:12:42;46.70;28.50
23991;DHT22;12205;50.600;4.608;2022-07-18T15:15:09;46.70;27.80
23991;DHT22;12205;50.600;4.608;2022-07-18T15:17:38;47.00;27.30
23991;DHT22;12205;50.600;4.608;2022-07-18T15:20:06;46.20;27.80
23991;DHT22;12205;50.600;4.608;2022-07-18T15:22:33;45.80;28.60
23991;DHT22;12205;50.600;4.608;2022-07-18T15:25:00;46.00;28.60
23991;DHT22;12205;50.600;4.608;2022-07-18T15:27:28;46.00;29.10
23991;DHT22;12205;50.600;4.608;2022-07-18T15:29:55;46.30;28.30
23991;DHT22;12205;50.600;4.608;2022-07-18T15:32:22;46.70;28.60
23991;DHT22;12205;50.600;4.608;2022-07-18T15:34:50;47.10;27.90
23991;DHT22;12205;50.600;4.608;2022-07-18T15:37:17;47.40;27.70
23991;DHT22;12205;50.600;4.608;2022-07-18T15:39:44;47.60;27.30
23991;DHT22;12205;50.600;4.608;2022-07-18T15:42:11;47.20;27.10